• Join FlightAware (Why Join?)
  • Login
  • US Flag 
03:20AM EDT


 

Airport Tracker/Info


-or-


 

Live Flight TrackerFlight Track Log ✈ KAP29 ✈ 06-Jun-2013 ✈ KSLK - KBOS

Flight Track Log - Related Links

Times and Time Zones

All times are in EDT time to prevent confusion due to time zone crossing. See the KAP29 flight status page for this flight to view local times or setup timezone preferences in your user account.

Time Position Orientation Groundspeed Altitude Reporting Facility
EDT Latitude Longitude Course Direction KTS MPH feet Rate Location/Type
06:38AM 44.3711 -74.0375 109° East 154 177 6,500  Level Boston Center
06:39AM 44.3508 -73.9875 120° Southeast 154 177 7,400 660 Climbing Boston Center
06:40AM 44.3267 -73.9375 124° Southeast 154 177 7,900 480 Climbing Boston Center
06:41AM 44.3044 -73.8819 119° Southeast 154 177 8,400 420 Climbing Boston Center
06:42AM 44.2800 -73.8292 123° Southeast 154 177 8,800 300 Climbing Boston Center
06:43AM 44.2924 -74.0136 133° Southeast  Level FlightAware Approximate
06:43AM 44.2556 -73.7764 123° Southeast 154 177 9,000  Level Boston Center
06:44AM 44.2770 -73.9748 109° East  Level FlightAware Approximate
06:44AM 44.2250 -73.7206 127° Southeast 171 197 9,000  Level Boston Center
06:45AM 44.1967 -73.6475 118° Southeast 177 204 9,000  Level Boston Center
06:46AM 44.1722 -73.5950 123° Southeast 182 209 9,000  Level Boston Center
06:47AM 44.1436 -73.5336 123° Southeast 182 209 9,000  Level Boston Center
06:48AM 44.1169 -73.4781 124° Southeast 182 209 9,000  Level Boston Center
06:49AM 44.0883 -73.4228 126° Southeast 176 203 9,000  Level Boston Center
06:50AM 44.0639 -73.3617 119° Southeast 176 203 9,000  Level Boston Center
06:51AM 44.0372 -73.3064 124° Southeast 176 203 9,000  Level Boston Center
06:52AM 44.0064 -73.2425 124° Southeast 176 203 9,000  Level Boston Center
06:53AM 43.9778 -73.1817 123° Southeast 176 203 9,000  Level Boston Center
06:54AM 43.9531 -73.1264 122° Southeast 176 203 9,000  Level Boston Center
06:55AM 43.9242 -73.0656 123° Southeast 176 203 9,000  Level Boston Center
06:56AM 43.8994 -73.0078 121° Southeast 176 203 9,000  Level Boston Center
06:57AM 43.8706 -72.9497 125° Southeast 176 203 9,000  Level Boston Center
06:58AM 43.8436 -72.8919 123° Southeast 176 203 9,000  Level Boston Center
06:59AM 43.8169 -72.8342 123° Southeast 176 203 9,000  Level Boston Center
07:00AM 43.7900 -72.7767 123° Southeast 176 203 9,000  Level Boston Center
07:01AM 43.7650 -72.7247 124° Southeast 176 203 9,000  Level Boston Center
07:02AM 43.7381 -72.6672 123° Southeast 176 203 9,000  Level Boston Center
07:03AM 43.7092 -72.6039 122° Southeast 176 203 9,100  Climbing Boston Center
07:04AM 43.6819 -72.5464 123° Southeast 176 203 9,100  Level Boston Center
07:05AM 43.6528 -72.4861 124° Southeast 176 203 9,100  Level Boston Center
07:06AM 43.6258 -72.4258 122° Southeast 176 203 9,100  Level Boston Center
07:07AM 43.5986 -72.3683 123° Southeast 176 203 9,100  Level Boston Center
07:08AM 43.5717 -72.3111 123° Southeast 176 203 9,100  Level Boston Center
07:09AM 43.5422 -72.2511 124° Southeast 176 203 9,100  Level Boston Center
07:10AM 43.5192 -72.1994 122° Southeast 181 208 9,100  Level Boston Center
07:11AM 43.4919 -72.1425 123° Southeast 181 208 9,100  Level Boston Center
07:12AM 43.4628 -72.0853 125° Southeast 181 208 9,100  Level Boston Center
07:13AM 43.4333 -72.0311 127° Southeast 181 208 9,100  Level Boston Center
07:14AM 43.3936 -71.9831 139° Southeast 176 203 9,100  Level Boston Center
07:15AM 43.3622 -71.9403 135° Southeast 176 203 9,100  Level Boston Center
07:16AM 43.3244 -71.8864 134° Southeast 176 203 9,100  Level Boston Center
07:17AM 43.2928 -71.8439 136° Southeast 176 203 9,100  Level Boston Center
07:18AM 43.2550 -71.7931 136° Southeast 171 197 9,100 -180 Level Boston Center
07:19AM 43.2236 -71.7506 135° Southeast 171 197 8,800 -360 Descending Boston Center
07:20AM 43.1817 -71.6942 136° Southeast 176 203 8,400 -300 Descending Boston Center
07:21AM 43.1500 -71.6461 132° Southeast 181 208 8,200 -300 Descending Boston Center
07:22AM 43.1081 -71.5925 137° Southeast 181 208 7,900 -420 Descending Boston Center
07:24AM 43.0500 -71.5000 131° Southeast 185 213 7,100 -480 Descending KA90
07:25AM 43.0167 -71.4500 132° Southeast 181 208 6,700 -420 Descending KA90
07:26AM 42.9833 -71.4000 132° Southeast 180 207 6,300 -420 Descending KA90
07:27AM 42.9500 -71.3667 144° Southeast 177 204 6,000 -240 Descending KA90
07:28AM 42.9167 -71.3167 132° Southeast 167 192 5,900 -60 Descending KA90
07:29AM 42.8667 -71.2833 154° Southeast 162 186 5,900  Level KA90
07:30AM 42.8333 -71.2333 132° Southeast 160 184 5,900  Level KA90
07:31AM 42.8000 -71.2000 144° Southeast 158 182 5,900 -360 Level KA90
07:32AM 42.7667 -71.1667 144° Southeast 176 203 5,200 -600 Descending KA90
07:33AM 42.7167 -71.1167 144° Southeast 179 206 4,800 -360 Descending KA90
07:34AM 42.6833 -71.0833 144° Southeast 173 199 4,500 -420 Descending KA90
07:35AM 42.6500 -71.0500 144° Southeast 177 204 4,000 -420 Descending KA90
07:36AM 42.6000 -71.0333 166° South 172 198 3,700 -360 Descending KA90
07:37AM 42.5500 -71.0000 154° Southeast 167 192 3,300 -540 Descending KA90
07:38AM 42.5000 -70.9833 166° South 174 200 2,700 -660 Descending KA90
07:39AM 42.4667 -70.9833 180° South 174 200 2,100 -840 Descending KA90
07:41AM 42.3833 -71.0000 188° South 136 157 300 -900 Descending KA90
07:43AM 42.3630 -71.0064 172° South  Level Estimated
07:50AM 42.3630 -71.0064 172° South  Level Estimated